Time;durP1;ratioP1;P1;durP2;ratioP2;P2;SDS_P1;SDS_P2;PMS_P1;PMS_P2;Temp;Humidity;BMP_temperature;BMP_pressure;BME280_temperature;BME280_humidity;BME280_pressure;Samples;Min_cycle;Max_cycle;Signal;HPM_P1;HPM_P2
2023/10/29 00:01:55;;;;;;;0.10;0.10;;;10.20;99.90;;;;;;4968260;28;20029;-75
2023/10/29 00:04:37;;;;;;;0.10;0.10;;;10.20;99.90;;;;;;4975074;28;20027;-74
2023/10/29 00:07:05;;;;;;;0.10;0.10;;;10.20;99.90;;;;;;4976661;28;20031;-75
2023/10/29 00:09:34;;;;;;;0.10;0.10;;;10.20;99.90;;;;;;4982544;28;20034;-75
2023/10/29 00:12:01;;;;;;;0.10;0.10;;;10.20;99.90;;;;;;4982590;28;20014;-76
2023/10/29 00:14:27;;;;;;;0.10;0.10;;;10.20;99.90;;;;;;4976950;28;20039;-75
2023/10/29 00:16:53;;;;;;;0.10;0.10;;;10.10;99.90;;;;;;5005467;28;20022;-77
2023/10/29 00:19:18;;;;;;;0.20;0.20;;;10.20;99.90;;;;;;4975755;28;20027;-75
2023/10/29 00:21:44;;;;;;;0.20;0.20;;;10.20;99.90;;;;;;4974126;28;20003;-75
2023/10/29 00:24:10;;;;;;;0.10;0.10;;;10.20;99.90;;;;;;4967401;28;20500;-74
2023/10/29 00:26:36;;;;;;;0.68;0.68;;;10.20;99.90;;;;;;4967423;28;20533;-74
2023/10/29 00:29:02;;;;;;;0.10;0.10;;;10.20;99.90;;;;;;4976983;28;20042;-73
2023/10/29 00:31:30;;;;;;;0.10;0.10;;;10.20;99.90;;;;;;4974959;28;20037;-74
2023/10/29 00:33:56;;;;;;;0.15;0.15;;;10.20;99.90;;;;;;4980258;28;20039;-75
2023/10/29 00:36:30;;;;;;;0.10;0.10;;;10.10;99.90;;;;;;5013340;28;20023;-75
2023/10/29 00:39:04;;;;;;;0.10;0.10;;;10.20;99.90;;;;;;4980473;28;20031;-75
2023/10/29 00:41:30;;;;;;;0.10;0.10;;;10.20;99.90;;;;;;4981767;28;20022;-77
2023/10/29 00:44:00;;;;;;;0.10;0.10;;;10.10;99.90;;;;;;4984725;28;20026;-76
2023/10/29 00:46:27;;;;;;;0.10;0.10;;;10.10;99.90;;;;;;4979300;28;20019;-75
2023/10/29 00:48:53;;;;;;;0.10;0.10;;;10.10;99.90;;;;;;4984262;28;20538;-74
2023/10/29 00:51:19;;;;;;;0.10;0.10;;;10.10;99.90;;;;;;4982517;28;20054;-75
2023/10/29 00:53:45;;;;;;;0.10;0.10;;;10.10;99.90;;;;;;4987704;28;20037;-74
2023/10/29 00:56:13;;;;;;;0.10;0.10;;;10.10;99.90;;;;;;4976082;28;20050;-75
2023/10/29 00:58:42;;;;;;;0.10;0.10;;;10.10;99.90;;;;;;4974149;28;20038;-74
2023/10/29 01:01:08;;;;;;;0.10;0.10;;;10.20;99.90;;;;;;4971765;28;20588;-79
2023/10/29 01:03:34;;;;;;;0.10;0.10;;;10.20;99.90;;;;;;4976742;28;20047;-75
2023/10/29 01:06:00;;;;;;;0.10;0.10;;;10.20;99.90;;;;;;4975952;28;20027;-74
2023/10/29 01:08:30;;;;;;;0.10;0.10;;;10.10;99.90;;;;;;4973344;28;20227;-77
2023/10/29 01:10:57;;;;;;;0.10;0.10;;;10.10;99.90;;;;;;4973580;28;20667;-76
2023/10/29 01:13:23;;;;;;;0.15;0.15;;;10.10;99.90;;;;;;4974329;28;20204;-74
2023/10/29 01:16:11;;;;;;;0.20;0.20;;;10.10;99.90;;;;;;4973787;28;20103;-75
2023/10/29 01:18:37;;;;;;;0.10;0.10;;;10.10;99.90;;;;;;4972579;28;20100;-74
2023/10/29 01:21:03;;;;;;;0.10;0.10;;;10.10;99.90;;;;;;4973669;28;20244;-74
2023/10/29 01:23:30;;;;;;;0.10;0.10;;;10.00;99.90;;;;;;4973554;28;20019;-75
2023/10/29 01:26:00;;;;;;;0.10;0.10;;;10.00;99.90;;;;;;4973283;28;20030;-74
2023/10/29 01:28:26;;;;;;;0.13;0.13;;;10.00;99.90;;;;;;4974188;28;20027;-74
2023/10/29 01:30:52;;;;;;;0.05;0.05;;;9.90;99.90;;;;;;4971849;28;20042;-75
2023/10/29 01:33:19;;;;;;;0.10;0.10;;;9.90;99.90;;;;;;4972877;28;20034;-74
2023/10/29 01:35:45;;;;;;;0.10;0.10;;;9.90;99.90;;;;;;4972591;28;20315;-74
2023/10/29 01:38:11;;;;;;;0.10;0.10;;;9.90;99.90;;;;;;4973092;28;20418;-74
2023/10/29 01:40:37;;;;;;;0.10;0.10;;;9.90;99.90;;;;;;4975070;28;20030;-74
2023/10/29 01:43:11;;;;;;;0.10;0.10;;;9.90;99.90;;;;;;4977233;28;20027;-75
2023/10/29 01:45:41;;;;;;;0.10;0.10;;;9.80;99.90;;;;;;4975922;28;20094;-85
2023/10/29 01:48:06;;;;;;;0.10;0.10;;;9.70;99.90;;;;;;4970710;28;20054;-75
2023/10/29 01:50:32;;;;;;;0.10;0.10;;;9.70;99.90;;;;;;4972469;28;20305;-82
2023/10/29 01:53:00;;;;;;;0.10;0.10;;;9.60;99.90;;;;;;4971852;28;20577;-75
2023/10/29 01:55:27;;;;;;;0.10;0.10;;;9.70;99.90;;;;;;4972564;28;20433;-75
2023/10/29 01:57:53;;;;;;;0.10;0.10;;;9.60;99.90;;;;;;4976761;28;20035;-75
2023/10/29 02:00:24;;;;;;;0.10;0.10;;;9.60;99.90;;;;;;4978637;28;20019;-74
2023/10/29 02:02:51;;;;;;;0.10;0.10;;;9.60;99.90;;;;;;4980775;28;20078;-74
2023/10/29 02:05:25;;;;;;;0.10;0.10;;;9.60;99.90;;;;;;4981841;28;20027;-75
2023/10/29 02:07:51;;;;;;;8.52;6.03;;;9.60;99.90;;;;;;4980621;28;20038;-78
2023/10/29 02:10:17;;;;;;;0.10;0.10;;;9.60;99.90;;;;;;4979655;28;20081;-74
2023/10/29 02:12:42;;;;;;;0.10;0.10;;;9.60;99.90;;;;;;4977355;28;20031;-75
2023/10/29 02:15:08;;;;;;;0.17;0.17;;;9.60;99.90;;;;;;4976764;28;20026;-75
2023/10/29 02:17:34;;;;;;;0.10;0.10;;;9.70;99.90;;;;;;4977467;28;20023;-74
2023/10/29 02:20:00;;;;;;;0.10;0.10;;;9.60;99.90;;;;;;5012559;28;20054;-74
2023/10/29 02:22:30;;;;;;;0.10;0.10;;;9.60;99.90;;;;;;4980868;28;20023;-77
2023/10/29 02:24:59;;;;;;;0.10;0.10;;;9.60;99.90;;;;;;4982201;28;20046;-74
2023/10/29 02:27:25;;;;;;;0.10;0.10;;;9.60;99.90;;;;;;4981270;28;20019;-74
2023/10/29 02:29:50;;;;;;;0.10;0.10;;;9.60;99.90;;;;;;4983323;28;20014;-74
2023/10/29 02:32:16;;;;;;;0.10;0.10;;;9.50;99.90;;;;;;4982555;28;20031;-74
2023/10/29 02:34:46;;;;;;;0.10;0.10;;;9.50;99.90;;;;;;4981586;28;20343;-75
2023/10/29 02:37:12;;;;;;;0.10;0.10;;;9.50;99.90;;;;;;4987376;28;20118;-74
2023/10/29 02:39:38;;;;;;;0.20;0.20;;;9.50;99.90;;;;;;4979020;28;20054;-75
2023/10/29 02:42:14;;;;;;;0.10;0.10;;;9.50;99.90;;;;;;4984700;28;20457;-74
2023/10/29 02:44:40;;;;;;;0.05;0.05;;;9.50;99.90;;;;;;4982623;28;20555;-75
2023/10/29 02:47:05;;;;;;;0.10;0.10;;;9.40;99.90;;;;;;4983554;28;20078;-75
2023/10/29 02:49:34;;;;;;;0.10;0.10;;;9.40;99.90;;;;;;4978628;28;20066;-74
2023/10/29 02:52:00;;;;;;;0.10;0.10;;;9.40;99.90;;;;;;4975295;28;20023;-74
2023/10/29 02:54:25;;;;;;;0.10;0.10;;;9.40;99.90;;;;;;4976527;28;20058;-75
2023/10/29 02:56:51;;;;;;;0.10;0.10;;;9.40;99.90;;;;;;4974909;28;20054;-75
2023/10/29 02:59:17;;;;;;;0.10;0.10;;;9.30;99.90;;;;;;4976270;28;20034;-76
2023/10/29 03:01:42;;;;;;;0.10;0.10;;;9.30;99.90;;;;;;4972090;28;20023;-74
2023/10/29 03:04:08;;;;;;;0.10;0.10;;;9.20;99.90;;;;;;4971303;28;20015;-75
2023/10/29 03:06:38;;;;;;;0.10;0.10;;;9.20;99.90;;;;;;5002250;28;20069;-75
2023/10/29 03:09:06;;;;;;;0.10;0.10;;;9.20;99.90;;;;;;4971922;28;20034;-75
2023/10/29 03:11:33;;;;;;;0.00;0.00;;;9.20;99.90;;;;;;4971813;28;20162;-75
2023/10/29 03:13:59;;;;;;;0.10;0.10;;;9.10;99.90;;;;;;4969057;28;20642;-74
2023/10/29 03:16:25;;;;;;;3.58;2.72;;;9.10;99.90;;;;;;4969932;28;20023;-75
2023/10/29 03:18:51;;;;;;;0.15;0.15;;;9.10;99.90;;;;;;4970874;28;20027;-75
2023/10/29 03:21:19;;;;;;;0.10;0.10;;;9.00;99.90;;;;;;4968829;28;20077;-75
2023/10/29 03:23:50;;;;;;;0.10;0.10;;;9.00;99.90;;;;;;4970086;28;20038;-74
2023/10/29 03:26:15;;;;;;;0.10;0.10;;;9.00;99.90;;;;;;4968971;28;20373;-74
2023/10/29 03:28:42;;;;;;;0.10;0.10;;;9.00;99.90;;;;;;4971286;28;20304;-75
2023/10/29 03:31:12;;;;;;;0.10;0.10;;;8.90;99.90;;;;;;4971162;28;20109;-75
2023/10/29 03:33:38;;;;;;;0.10;0.10;;;8.90;99.90;;;;;;4969020;28;20039;-75
2023/10/29 03:36:04;;;;;;;0.10;0.10;;;8.90;99.90;;;;;;4970908;28;20296;-75
2023/10/29 03:38:30;;;;;;;0.10;0.10;;;8.90;99.90;;;;;;4971032;28;20030;-74
2023/10/29 03:40:56;;;;;;;0.10;0.10;;;8.90;99.90;;;;;;4971723;28;20046;-75
2023/10/29 03:43:21;;;;;;;0.10;0.10;;;9.00;99.90;;;;;;4970200;28;20030;-75
2023/10/29 03:45:47;;;;;;;0.10;0.10;;;8.90;99.90;;;;;;4970967;28;20023;-74
2023/10/29 03:48:18;;;;;;;0.10;0.10;;;8.90;99.90;;;;;;4976736;28;20042;-74
2023/10/29 03:50:44;;;;;;;0.10;0.10;;;8.80;99.90;;;;;;4977012;28;20159;-75
2023/10/29 03:53:10;;;;;;;0.10;0.10;;;8.80;99.90;;;;;;4973026;28;20497;-74
2023/10/29 03:55:36;;;;;;;0.10;0.10;;;8.80;99.90;;;;;;4977581;28;20015;-74
2023/10/29 03:58:04;;;;;;;0.10;0.10;;;8.80;99.90;;;;;;4981520;28;20027;-75
2023/10/29 04:00:30;;;;;;;0.05;0.05;;;8.70;99.90;;;;;;4970072;28;20023;-74
2023/10/29 04:02:56;;;;;;;0.10;0.10;;;8.80;99.90;;;;;;4969142;28;20030;-74
2023/10/29 04:05:22;;;;;;;0.00;0.00;;;8.70;99.90;;;;;;4974505;28;20030;-74
2023/10/29 04:07:51;;;;;;;0.10;0.10;;;8.70;99.90;;;;;;4973085;28;20022;-75
2023/10/29 04:10:20;;;;;;;0.10;0.10;;;11.40;99.90;;;;;;4971540;28;20034;-76
2023/10/29 04:12:45;;;;;;;0.10;0.10;;;8.80;99.90;;;;;;4971535;28;20699;-74
2023/10/29 04:15:11;;;;;;;0.10;0.10;;;8.80;99.90;;;;;;4971043;28;20350;-74
2023/10/29 04:17:39;;;;;;;0.10;0.10;;;8.80;99.90;;;;;;4972120;28;20057;-74
2023/10/29 04:20:05;;;;;;;0.10;0.10;;;8.80;99.90;;;;;;4971779;28;20027;-74
2023/10/29 04:22:33;;;;;;;0.10;0.10;;;8.80;99.90;;;;;;4972690;28;20046;-74
2023/10/29 04:24:58;;;;;;;0.10;0.10;;;8.80;99.90;;;;;;4975022;28;20027;-74
2023/10/29 04:27:25;;;;;;;0.10;0.10;;;8.80;99.90;;;;;;4971985;28;20153;-75
2023/10/29 04:29:55;;;;;;;0.00;0.00;;;8.80;99.90;;;;;;5005606;28;20046;-74
2023/10/29 04:32:40;;;;;;;0.03;0.03;;;8.80;99.90;;;;;;4969972;28;20150;-75
2023/10/29 04:35:07;;;;;;;0.10;0.10;;;8.80;99.90;;;;;;4974251;28;20078;-75
2023/10/29 04:37:37;;;;;;;0.00;0.00;;;8.70;99.90;;;;;;4976451;28;20553;-75
2023/10/29 04:40:04;;;;;;;0.05;0.05;;;8.70;99.90;;;;;;4975002;28;20170;-75
2023/10/29 04:42:30;;;;;;;0.00;0.00;;;8.70;99.90;;;;;;4974062;28;20027;-75
2023/10/29 04:44:55;;;;;;;0.10;0.10;;;8.60;99.90;;;;;;4968801;28;20027;-75
2023/10/29 04:47:23;;;;;;;0.10;0.10;;;8.60;99.90;;;;;;4966813;28;20049;-75
2023/10/29 04:49:49;;;;;;;0.20;0.20;;;8.60;99.90;;;;;;4968703;28;20045;-75
2023/10/29 04:52:15;;;;;;;0.10;0.10;;;8.60;99.90;;;;;;4967383;28;20354;-74
2023/10/29 04:54:42;;;;;;;0.08;0.08;;;8.60;99.90;;;;;;4951371;28;20204;-74
2023/10/29 04:57:08;;;;;;;0.10;0.10;;;8.60;99.90;;;;;;4968071;28;20332;-75
2023/10/29 04:59:36;;;;;;;0.10;0.10;;;8.60;99.90;;;;;;4965675;28;20089;-74
2023/10/29 05:02:04;;;;;;;0.10;0.10;;;8.50;99.90;;;;;;4970493;28;20282;-73
2023/10/29 05:04:30;;;;;;;2.83;0.95;;;8.60;99.90;;;;;;4973070;28;20058;-75
2023/10/29 05:06:57;;;;;;;0.10;0.10;;;8.50;99.90;;;;;;4973925;28;20324;-75
2023/10/29 05:09:24;;;;;;;0.00;0.00;;;8.50;99.90;;;;;;4972497;28;20138;-75
2023/10/29 05:11:49;;;;;;;0.10;0.10;;;8.40;99.90;;;;;;4967584;28;20007;-74
2023/10/29 05:14:15;;;;;;;0.10;0.10;;;8.40;99.90;;;;;;4967402;28;20066;-74
2023/10/29 05:16:41;;;;;;;0.10;0.10;;;8.40;99.90;;;;;;4969634;28;20022;-74
2023/10/29 05:19:08;;;;;;;0.00;0.00;;;8.40;99.90;;;;;;4965556;28;20196;-74
2023/10/29 05:21:34;;;;;;;0.10;0.10;;;8.40;99.90;;;;;;4966052;28;20155;-74
2023/10/29 05:24:00;;;;;;;0.10;0.10;;;8.40;99.90;;;;;;4966387;28;20167;-74
2023/10/29 05:26:26;;;;;;;0.25;0.25;;;8.40;99.90;;;;;;4971609;28;20054;-74
2023/10/29 05:28:54;;;;;;;0.10;0.10;;;8.40;99.90;;;;;;4967469;28;20027;-74
2023/10/29 05:31:19;;;;;;;0.10;0.10;;;8.40;99.90;;;;;;4970876;28;20122;-74
2023/10/29 05:33:45;;;;;;;0.10;0.10;;;8.40;99.90;;;;;;4971453;28;20058;-75
2023/10/29 05:36:11;;;;;;;0.10;0.10;;;8.40;99.90;;;;;;4969811;28;20070;-74
2023/10/29 05:38:36;;;;;;;0.10;0.10;;;8.40;99.90;;;;;;4968169;28;20662;-75
2023/10/29 05:41:02;;;;;;;0.10;0.10;;;8.40;99.90;;;;;;4976250;28;20059;-75
2023/10/29 05:43:28;;;;;;;0.10;0.10;;;8.40;99.90;;;;;;4971974;28;20134;-76
2023/10/29 05:45:54;;;;;;;0.10;0.10;;;8.50;99.90;;;;;;4972412;28;20454;-75
2023/10/29 05:48:21;;;;;;;0.10;0.10;;;8.50;99.90;;;;;;4969259;28;20265;-75
2023/10/29 05:50:47;;;;;;;0.10;0.10;;;8.60;99.90;;;;;;4969380;28;20038;-76
2023/10/29 05:53:15;;;;;;;0.10;0.10;;;8.50;99.90;;;;;;4967879;28;20023;-80
2023/10/29 05:55:41;;;;;;;0.10;0.10;;;8.60;99.90;;;;;;4968280;28;20031;-76
2023/10/29 05:58:07;;;;;;;0.10;0.10;;;8.60;99.90;;;;;;4973546;28;20486;-75
2023/10/29 06:00:39;;;;;;;0.10;0.10;;;8.60;99.90;;;;;;4972004;28;20118;-74
2023/10/29 06:03:04;;;;;;;0.17;0.17;;;8.60;99.90;;;;;;4976918;28;20113;-75
2023/10/29 06:05:30;;;;;;;0.15;0.15;;;8.70;99.90;;;;;;4973869;28;20034;-75
2023/10/29 06:07:56;;;;;;;0.30;0.30;;;8.90;99.90;;;;;;4968671;28;20034;-75
2023/10/29 06:10:22;;;;;;;0.10;0.10;;;8.70;99.90;;;;;;4970636;28;20633;-75
2023/10/29 06:12:48;;;;;;;0.10;0.10;;;8.80;99.90;;;;;;4977635;28;20023;-74
2023/10/29 06:15:14;;;;;;;0.10;0.10;;;8.80;99.90;;;;;;4971730;28;20494;-75
2023/10/29 06:17:41;;;;;;;0.10;0.10;;;8.80;99.90;;;;;;4976874;28;20524;-75
2023/10/29 06:20:10;;;;;;;0.17;0.17;;;8.90;99.90;;;;;;4976006;28;20062;-76
2023/10/29 06:22:37;;;;;;;2.05;1.95;;;9.00;99.90;;;;;;4974977;28;20003;-75
2023/10/29 06:25:02;;;;;;;0.10;0.10;;;8.80;99.90;;;;;;4981622;28;20033;-75
2023/10/29 06:27:28;;;;;;;0.10;0.10;;;8.90;99.90;;;;;;4976218;28;20023;-76
2023/10/29 06:29:54;;;;;;;0.10;0.10;;;9.00;99.90;;;;;;4976823;28;20318;-75
2023/10/29 06:32:20;;;;;;;0.10;0.10;;;9.00;99.90;;;;;;4972934;28;20478;-74
2023/10/29 06:34:46;;;;;;;0.10;0.10;;;9.00;99.90;;;;;;4973124;28;20046;-75
2023/10/29 06:37:15;;;;;;;0.10;0.10;;;9.10;99.90;;;;;;4970245;28;20035;-75
2023/10/29 06:39:41;;;;;;;0.10;0.10;;;9.10;99.90;;;;;;4971303;28;20047;-75
2023/10/29 06:42:07;;;;;;;0.00;0.00;;;9.20;99.90;;;;;;4971777;28;20007;-74
2023/10/29 06:44:33;;;;;;;0.10;0.10;;;9.30;99.90;;;;;;4972662;28;20023;-75
2023/10/29 06:47:01;;;;;;;0.03;0.03;;;9.40;99.90;;;;;;4970282;28;21801;-75
2023/10/29 06:49:26;;;;;;;0.10;0.10;;;9.40;99.90;;;;;;4973701;28;20123;-75
2023/10/29 06:51:54;;;;;;;0.10;0.10;;;9.50;99.90;;;;;;4975308;28;20521;-75
2023/10/29 06:54:19;;;;;;;0.10;0.10;;;9.60;99.90;;;;;;4976974;28;20035;-75
2023/10/29 06:56:48;;;;;;;0.03;0.03;;;9.80;99.90;;;;;;4973646;28;20086;-75
2023/10/29 06:59:18;;;;;;;0.10;0.10;;;9.80;99.90;;;;;;4979575;28;20026;-75
2023/10/29 07:01:49;;;;;;;0.10;0.10;;;10.00;99.90;;;;;;4976131;28;20058;-76
2023/10/29 07:04:21;;;;;;;0.20;0.20;;;10.10;99.90;;;;;;4975725;28;20105;-75
2023/10/29 07:06:47;;;;;;;0.10;0.10;;;7.10;99.90;;;;;;4973773;28;20023;-75
2023/10/29 07:09:15;;;;;;;6.30;5.68;;;10.40;99.90;;;;;;4973872;28;20706;-75
2023/10/29 07:11:42;;;;;;;0.17;0.17;;;10.50;99.90;;;;;;4972292;28;20292;-75
2023/10/29 07:14:08;;;;;;;0.10;0.10;;;10.60;99.90;;;;;;4978306;28;20051;-75
2023/10/29 07:16:35;;;;;;;0.10;0.10;;;10.80;99.90;;;;;;4979035;28;20115;-75
2023/10/29 07:19:00;;;;;;;3.83;3.70;;;11.00;99.90;;;;;;4979320;28;20478;-75
2023/10/29 07:21:26;;;;;;;0.10;0.10;;;11.20;99.90;;;;;;4979197;28;20039;-75
2023/10/29 07:24:04;;;;;;;0.10;0.10;;;11.30;99.90;;;;;;4977394;28;20029;-76
2023/10/29 07:26:30;;;;;;;0.28;0.28;;;11.50;99.90;;;;;;4974563;28;20045;-74
2023/10/29 07:28:55;;;;;;;1.00;1.00;;;11.60;99.90;;;;;;4978810;28;20027;-75
2023/10/29 07:31:23;;;;;;;0.10;0.10;;;11.80;99.90;;;;;;5005641;28;20524;-75
2023/10/29 07:33:49;;;;;;;0.20;0.20;;;11.90;99.90;;;;;;4975391;28;20402;-75
2023/10/29 07:36:17;;;;;;;0.25;0.25;;;12.00;99.90;;;;;;4973460;28;20030;-75
2023/10/29 07:38:43;;;;;;;0.10;0.10;;;12.20;99.90;;;;;;4975147;28;20038;-75
2023/10/29 07:41:11;;;;;;;0.10;0.10;;;12.40;99.90;;;;;;4967235;28;20208;-90
2023/10/29 07:43:42;;;;;;;0.10;0.10;;;12.50;99.90;;;;;;4963551;28;20031;-76
2023/10/29 07:46:08;;;;;;;1.08;1.02;;;12.60;99.90;;;;;;4963056;28;20605;-77
2023/10/29 07:48:34;;;;;;;0.20;0.20;;;12.90;99.90;;;;;;4962094;28;20126;-76
2023/10/29 07:51:00;;;;;;;0.20;0.20;;;13.00;99.90;;;;;;4961863;28;20023;-77
2023/10/29 07:53:28;;;;;;;0.10;0.10;;;13.20;99.90;;;;;;4963073;28;20047;-78
2023/10/29 07:55:54;;;;;;;0.10;0.10;;;13.40;99.90;;;;;;4969666;28;20324;-76
2023/10/29 07:58:19;;;;;;;0.15;0.15;;;13.50;99.90;;;;;;4970564;28;20255;-75
2023/10/29 08:00:45;;;;;;;0.20;0.20;;;13.60;99.90;;;;;;4973136;28;20086;-76
2023/10/29 08:03:11;;;;;;;0.20;0.20;;;13.80;99.90;;;;;;4966749;28;20106;-75
2023/10/29 08:05:36;;;;;;;2.75;2.58;;;14.00;99.90;;;;;;4960922;28;20122;-74
2023/10/29 08:08:03;;;;;;;0.20;0.20;;;14.10;99.90;;;;;;4960420;28;20105;-75
2023/10/29 08:10:29;;;;;;;0.10;0.10;;;14.20;99.90;;;;;;4959509;28;20026;-76
2023/10/29 08:12:55;;;;;;;0.10;0.10;;;;;;;;;;4959345;28;20038;-77
2023/10/29 08:15:20;;;;;;;0.10;0.10;;;14.40;99.90;;;;;;4959548;28;20034;-76
2023/10/29 08:17:46;;;;;;;0.10;0.10;;;14.50;99.90;;;;;;4961125;28;20378;-76
2023/10/29 08:20:12;;;;;;;0.10;0.10;;;14.70;99.90;;;;;;4960405;28;20033;-81
2023/10/29 08:22:38;;;;;;;0.13;0.13;;;14.80;99.90;;;;;;4960503;28;20160;-80
2023/10/29 08:25:04;;;;;;;0.80;0.80;;;15.00;99.90;;;;;;4961268;28;20034;-75
2023/10/29 08:27:30;;;;;;;0.20;0.20;;;15.20;99.90;;;;;;4961301;28;20336;-78
2023/10/29 08:29:56;;;;;;;1.27;1.27;;;15.30;99.90;;;;;;4960575;28;20097;-74
2023/10/29 08:32:21;;;;;;;0.15;0.15;;;15.30;99.90;;;;;;4960924;28;20109;-82
2023/10/29 08:34:47;;;;;;;4.57;1.85;;;14.60;99.90;;;;;;4960388;28;20371;-84
2023/10/29 08:37:13;;;;;;;19.17;17.63;;;15.60;99.90;;;;;;4960521;28;20231;-79
2023/10/29 08:39:39;;;;;;;0.20;0.20;;;15.80;99.90;;;;;;4958408;28;20172;-77
2023/10/29 08:42:05;;;;;;;1.58;1.58;;;15.10;99.90;;;;;;4959340;28;20050;-83
2023/10/29 08:44:31;;;;;;;0.13;0.13;;;15.90;99.90;;;;;;4989658;28;20104;-75
2023/10/29 08:46:57;;;;;;;0.73;0.70;;;16.10;99.90;;;;;;4958975;28;20443;-74
2023/10/29 08:49:23;;;;;;;0.10;0.10;;;16.20;99.90;;;;;;4958589;28;20047;-74
2023/10/29 08:51:50;;;;;;;0.10;0.10;;;16.30;99.90;;;;;;4958360;28;20027;-78
2023/10/29 08:54:15;;;;;;;1.95;1.85;;;16.50;99.90;;;;;;4958520;28;20637;-74
2023/10/29 08:56:41;;;;;;;0.20;0.20;;;16.50;99.90;;;;;;4959495;28;20243;-73
2023/10/29 08:59:09;;;;;;;0.95;0.90;;;16.70;99.90;;;;;;4989797;28;20103;-82
2023/10/29 09:01:35;;;;;;;1.50;1.50;;;17.60;99.90;;;;;;4958521;28;20019;-74
2023/10/29 09:04:03;;;;;;;0.10;0.10;;;16.80;99.90;;;;;;4958974;28;20058;-74
2023/10/29 09:06:29;;;;;;;0.40;0.40;;;16.90;99.90;;;;;;4962591;28;20107;-75
2023/10/29 09:08:56;;;;;;;0.10;0.10;;;17.00;99.90;;;;;;4963017;28;20032;-83
2023/10/29 09:11:22;;;;;;;0.25;0.25;;;17.00;99.90;;;;;;4962769;28;20510;-75
2023/10/29 09:13:48;;;;;;;0.10;0.10;;;17.20;99.90;;;;;;4962722;28;20347;-76
2023/10/29 09:16:14;;;;;;;0.15;0.15;;;17.30;99.90;;;;;;4962873;28;20035;-76
2023/10/29 09:18:40;;;;;;;0.20;0.20;;;17.40;99.90;;;;;;4962681;28;20034;-82
2023/10/29 09:21:06;;;;;;;0.10;0.10;;;17.50;99.90;;;;;;4962493;28;20018;-77
2023/10/29 09:23:32;;;;;;;0.50;0.50;;;17.40;99.90;;;;;;4963783;28;20030;-79
2023/10/29 09:25:59;;;;;;;0.10;0.10;;;17.60;99.90;;;;;;4963087;28;20399;-75
2023/10/29 09:28:26;;;;;;;0.38;0.38;;;17.80;99.90;;;;;;4964108;28;20051;-76
2023/10/29 09:30:52;;;;;;;0.10;0.10;;;17.90;99.90;;;;;;4963267;28;20023;-75
2023/10/29 09:33:18;;;;;;;0.60;0.60;;;18.00;99.90;;;;;;4962598;28;20019;-76
2023/10/29 09:35:43;;;;;;;0.20;0.20;;;18.20;99.90;;;;;;4962641;28;20331;-77
2023/10/29 09:38:09;;;;;;;0.30;0.30;;;18.30;99.90;;;;;;4962592;28;20540;-73
2023/10/29 09:40:38;;;;;;;0.52;0.52;;;18.10;99.90;;;;;;4962734;28;20054;-80
2023/10/29 09:43:08;;;;;;;0.30;0.30;;;18.20;99.90;;;;;;4962717;28;20243;-86
2023/10/29 09:45:45;;;;;;;0.10;0.10;;;18.20;99.90;;;;;;4962928;28;20513;-75
2023/10/29 09:48:12;;;;;;;0.45;0.45;;;18.30;99.90;;;;;;4962209;28;20422;-78
2023/10/29 09:50:37;;;;;;;0.38;0.38;;;18.50;99.90;;;;;;4963236;28;20256;-76
2023/10/29 09:53:05;;;;;;;2.35;2.25;;;18.60;99.90;;;;;;4961917;28;20039;-77
2023/10/29 09:55:33;;;;;;;0.35;0.35;;;18.80;99.90;;;;;;4961630;28;20042;-76
2023/10/29 09:58:00;;;;;;;6.18;5.88;;;19.10;99.90;;;;;;4961615;28;20169;-76
2023/10/29 10:00:25;;;;;;;0.75;0.75;;;19.30;99.90;;;;;;4961483;28;20517;-76
2023/10/29 10:02:59;;;;;;;1.13;1.13;;;19.40;99.90;;;;;;4962136;28;20054;-75
2023/10/29 10:05:28;;;;;;;1.40;1.30;;;19.60;99.90;;;;;;4961516;28;20031;-75
2023/10/29 10:07:57;;;;;;;0.17;0.17;;;19.80;99.90;;;;;;4962736;28;20074;-76
2023/10/29 10:10:41;;;;;;;0.77;0.75;;;19.60;99.90;;;;;;4963169;28;20022;-90
2023/10/29 10:13:07;;;;;;;0.95;0.95;;;19.90;99.90;;;;;;4962966;28;20034;-91
2023/10/29 10:15:34;;;;;;;0.30;0.30;;;20.10;99.90;;;;;;4965412;28;20039;-86
2023/10/29 10:18:04;;;;;;;0.17;0.17;;;20.30;99.90;;;;;;4963302;28;20109;-77
2023/10/29 10:20:31;;;;;;;0.30;0.30;;;20.40;99.90;;;;;;4961966;28;20028;-90
2023/10/29 10:23:01;;;;;;;0.38;0.38;;;20.40;99.90;;;;;;4967768;28;20026;-90
2023/10/29 10:25:28;;;;;;;0.50;0.50;;;20.70;99.90;;;;;;4977990;28;20034;-89
2023/10/29 10:27:58;;;;;;;0.20;0.20;;;20.80;99.90;;;;;;4967587;28;20358;-77
2023/10/29 10:30:33;;;;;;;0.73;0.73;;;20.90;99.90;;;;;;4962395;28;20224;-75
2023/10/29 10:33:13;;;;;;;0.28;0.28;;;21.00;99.90;;;;;;4963589;28;20022;-76
2023/10/29 10:35:45;;;;;;;0.10;0.10;;;21.20;99.90;;;;;;4961619;28;20511;-75
2023/10/29 10:38:12;;;;;;;0.10;0.10;;;21.30;99.90;;;;;;4961441;28;20018;-74
2023/10/29 10:40:38;;;;;;;1.42;1.38;;;21.40;99.80;;;;;;4962559;28;20089;-87
2023/10/29 10:43:08;;;;;;;0.55;0.55;;;21.60;99.70;;;;;;4960264;28;20492;-75
2023/10/29 10:45:36;;;;;;;0.38;0.38;;;21.60;99.90;;;;;;4960805;28;20026;-80
2023/10/29 10:48:04;;;;;;;0.10;0.10;;;21.80;99.80;;;;;;4961608;28;20093;-76
2023/10/29 10:50:32;;;;;;;0.65;0.65;;;21.90;99.20;;;;;;4962383;28;20046;-78
2023/10/29 10:52:58;;;;;;;0.10;0.10;;;21.90;99.00;;;;;;4964143;28;20224;-75
2023/10/29 10:55:25;;;;;;;0.10;0.10;;;21.90;98.70;;;;;;4961401;28;20070;-75
2023/10/29 10:57:52;;;;;;;1.85;1.75;;;22.00;98.90;;;;;;4960455;28;20019;-74
2023/10/29 11:00:19;;;;;;;0.10;0.10;;;22.10;98.70;;;;;;4960784;28;20027;-75
2023/10/29 11:02:46;;;;;;;0.10;0.10;;;22.20;96.70;;;;;;4960925;28;20019;-75
2023/10/29 11:05:16;;;;;;;0.10;0.10;;;22.10;97.10;;;;;;4960315;28;20030;-75
2023/10/29 11:07:44;;;;;;;0.10;0.10;;;22.20;96.70;;;;;;4960466;28;20026;-80
2023/10/29 11:10:14;;;;;;;2.92;2.83;;;22.30;96.60;;;;;;4960555;28;20046;-82
2023/10/29 11:12:40;;;;;;;0.10;0.10;;;22.50;96.10;;;;;;4961585;28;20049;-79
2023/10/29 11:15:15;;;;;;;0.10;0.10;;;22.60;94.70;;;;;;4961491;28;20059;-84
2023/10/29 11:18:01;;;;;;;0.10;0.10;;;22.50;94.80;;;;;;4959685;28;20142;-75
2023/10/29 11:20:36;;;;;;;0.10;0.10;;;22.50;94.50;;;;;;4960265;28;20493;-77
2023/10/29 11:23:09;;;;;;;0.10;0.10;;;22.70;93.50;;;;;;4961533;28;20059;-76
2023/10/29 11:25:41;;;;;;;0.10;0.10;;;22.90;93.90;;;;;;4960727;28;20034;-77
2023/10/29 11:28:28;;;;;;;0.10;0.10;;;23.70;93.90;;;;;;4958096;28;20022;-82
2023/10/29 11:31:13;;;;;;;0.17;0.17;;;23.10;92.30;;;;;;4960726;28;20331;-76
2023/10/29 11:33:43;;;;;;;0.10;0.10;;;23.20;91.00;;;;;;4960707;28;20018;-76
2023/10/29 11:36:32;;;;;;;0.10;0.10;;;23.30;90.10;;;;;;4960700;28;20398;-82
2023/10/29 11:39:16;;;;;;;0.10;0.10;;;23.30;90.30;;;;;;4960545;28;20045;-83
2023/10/29 11:41:43;;;;;;;0.10;0.10;;;23.50;88.40;;;;;;4960549;28;20027;-80
2023/10/29 11:44:18;;;;;;;0.10;0.10;;;23.50;88.50;;;;;;4960359;28;20019;-82
2023/10/29 11:46:56;;;;;;;0.10;0.10;;;25.40;87.50;;;;;;4960012;28;20027;-76
2023/10/29 11:49:22;;;;;;;0.10;0.10;;;23.80;85.30;;;;;;4959897;28;20046;-79
2023/10/29 11:52:01;;;;;;;1.40;0.90;;;23.80;86.10;;;;;;4959841;28;20099;-77
2023/10/29 11:54:32;;;;;;;0.75;0.75;;;23.80;83.70;;;;;;4960121;28;20031;-75
2023/10/29 11:56:58;;;;;;;0.10;0.10;;;23.90;83.60;;;;;;4959817;28;20544;-76
2023/10/29 11:59:26;;;;;;;0.10;0.10;;;23.70;83.10;;;;;;4960712;28;20035;-77
2023/10/29 12:01:53;;;;;;;0.65;0.65;;;23.70;82.50;;;;;;4962815;28;20275;-75
2023/10/29 12:04:19;;;;;;;0.10;0.10;;;23.70;82.90;;;;;;4961281;28;20522;-80
2023/10/29 12:06:47;;;;;;;0.10;0.10;;;23.70;83.40;;;;;;4961138;28;20268;-76
2023/10/29 12:09:22;;;;;;;0.20;0.20;;;23.90;83.60;;;;;;4960325;28;20208;-77
2023/10/29 12:11:50;;;;;;;0.10;0.10;;;24.10;83.30;;;;;;4959666;28;20518;-77
2023/10/29 12:14:43;;;;;;;0.10;0.10;;;24.30;81.90;;;;;;4959394;28;20700;-76
2023/10/29 12:17:10;;;;;;;0.10;0.10;;;24.30;80.60;;;;;;4959767;28;20019;-78
2023/10/29 12:19:46;;;;;;;0.10;0.10;;;24.20;80.60;;;;;;4959479;28;20354;-79
2023/10/29 12:22:30;;;;;;;0.10;0.10;;;24.30;81.10;;;;;;4959322;28;20053;-76
2023/10/29 12:25:00;;;;;;;0.10;0.10;;;24.20;80.50;;;;;;4958202;28;20051;-75
2023/10/29 12:27:30;;;;;;;4.53;1.52;;;24.30;80.50;;;;;;4960310;28;20023;-75
2023/10/29 12:29:56;;;;;;;0.20;0.20;;;24.50;79.90;;;;;;4960563;28;20038;-75
2023/10/29 12:32:24;;;;;;;0.15;0.15;;;24.40;79.00;;;;;;4959419;28;20026;-74
2023/10/29 12:34:53;;;;;;;0.10;0.10;;;24.50;78.90;;;;;;4958976;28;20074;-77
2023/10/29 12:37:25;;;;;;;0.00;0.00;;;24.20;79.50;;;;;;4959105;28;20525;-76
2023/10/29 12:39:52;;;;;;;0.10;0.10;;;24.10;80.30;;;;;;4958836;28;20085;-86
2023/10/29 12:42:19;;;;;;;0.10;0.10;;;24.10;79.50;;;;;;4959084;28;20447;-75
2023/10/29 12:44:54;;;;;;;0.10;0.10;;;24.20;79.00;;;;;;4958744;28;20256;-74
2023/10/29 12:47:22;;;;;;;0.10;0.10;;;24.40;77.90;;;;;;4958854;28;20046;-75
2023/10/29 12:50:01;;;;;;;0.00;0.00;;;24.60;78.70;;;;;;4958906;28;20045;-85
2023/10/29 12:52:28;;;;;;;0.10;0.10;;;24.60;77.40;;;;;;4958742;28;20080;-75
2023/10/29 12:54:54;;;;;;;0.10;0.10;;;24.90;78.20;;;;;;4958868;28;20046;-75